createdAt,value
2018-02-05T00:00:34.674Z,101986.27
2018-02-05T00:03:02.997Z,101984.48
2018-02-05T00:05:31.350Z,101983.78
2018-02-05T00:07:59.673Z,101981.11
2018-02-05T00:10:28.018Z,101980.63
2018-02-05T00:12:56.340Z,101979.55
2018-02-05T00:15:24.685Z,101983.89
2018-02-05T00:17:53.024Z,101986.83
2018-02-05T00:20:21.370Z,101981.67
2018-02-05T00:22:49.702Z,101983.30
2018-02-05T00:25:18.054Z,101988.23
2018-02-05T00:27:46.374Z,101990.44
2018-02-05T00:30:14.718Z,101990.86
2018-02-05T00:32:43.043Z,101992.56
2018-02-05T00:35:11.394Z,101990.31
2018-02-05T00:37:39.718Z,101986.38
2018-02-05T00:40:08.062Z,101997.58
2018-02-05T00:42:36.386Z,101999.39
2018-02-05T00:45:04.734Z,101995.96
2018-02-05T00:47:33.057Z,101989.05
2018-02-05T00:50:01.403Z,101993.81
2018-02-05T00:52:29.726Z,101993.81
2018-02-05T00:54:58.073Z,101988.96
2018-02-05T00:57:26.394Z,101992.50
2018-02-05T00:59:54.737Z,101998.58
2018-02-05T01:02:23.066Z,101996.73
2018-02-05T01:04:51.406Z,101999.47
2018-02-05T01:07:19.730Z,102002.91
2018-02-05T01:09:48.078Z,102004.62
2018-02-05T01:12:16.406Z,102008.95
2018-02-05T01:14:44.750Z,102005.39
2018-02-05T01:17:13.074Z,102011.12
2018-02-05T01:19:41.417Z,102006.86
2018-02-05T01:22:09.741Z,102005.16
2018-02-05T01:24:38.085Z,102005.92
2018-02-05T01:27:06.409Z,102007.34
2018-02-05T01:29:34.754Z,102011.36
2018-02-05T01:32:03.078Z,102005.31
2018-02-05T01:34:31.421Z,102001.80
2018-02-05T01:36:59.754Z,102003.20
2018-02-05T01:39:28.102Z,102002.73
2018-02-05T01:41:56.433Z,102003.93
2018-02-05T01:44:24.757Z,102007.13
2018-02-05T01:46:53.101Z,102001.31
2018-02-05T01:49:21.425Z,102004.15
2018-02-05T01:51:49.774Z,102004.02
2018-02-05T01:54:18.098Z,102006.31
2018-02-05T01:56:46.445Z,102007.69
2018-02-05T01:59:14.769Z,102004.86
2018-02-05T02:01:43.117Z,102003.06
2018-02-05T02:04:11.437Z,102000.95
2018-02-05T02:06:39.782Z,102004.15
2018-02-05T02:09:08.113Z,102008.91
2018-02-05T02:11:36.451Z,102006.18
2018-02-05T02:14:04.773Z,102007.69
2018-02-05T02:16:33.117Z,102012.35
2018-02-05T02:19:01.441Z,102013.26
2018-02-05T02:21:29.785Z,102023.98
2018-02-05T02:23:58.109Z,102024.83
2018-02-05T02:26:26.458Z,102028.34
2018-02-05T02:28:54.781Z,102033.98
2018-02-05T02:31:23.125Z,102034.48
2018-02-05T02:33:51.449Z,102039.58
2018-02-05T02:36:19.798Z,102040.91
2018-02-05T02:38:48.121Z,102046.14
2018-02-05T02:41:16.461Z,102045.64
2018-02-05T02:43:44.785Z,102044.34
2018-02-05T02:46:13.128Z,102048.36
2018-02-05T02:48:41.453Z,102050.93
2018-02-05T02:51:09.801Z,102050.89
2018-02-05T02:53:38.125Z,102052.59
2018-02-05T02:56:06.469Z,102057.45
2018-02-05T02:58:34.794Z,102059.63
2018-02-05T03:01:03.138Z,102062.72
2018-02-05T03:03:31.462Z,102054.85
2018-02-05T03:05:59.805Z,102055.64
2018-02-05T03:08:28.129Z,102067.63
2018-02-05T03:10:56.474Z,102065.24
2018-02-05T03:13:24.798Z,102068.41
2018-02-05T03:15:53.141Z,102074.02
2018-02-05T03:18:21.469Z,102071.38
2018-02-05T03:20:49.817Z,102071.80
2018-02-05T03:23:18.144Z,102074.91
2018-02-05T03:25:46.481Z,102078.42
2018-02-05T03:28:14.800Z,102071.38
2018-02-05T03:30:43.149Z,102077.90
2018-02-05T03:33:11.473Z,102079.67
2018-02-05T03:35:39.816Z,102073.91
2018-02-05T03:38:08.141Z,102080.08
2018-02-05T03:40:36.489Z,102085.33
2018-02-05T03:43:04.809Z,102082.22
2018-02-05T03:45:33.137Z,102082.73
2018-02-05T03:48:01.472Z,102084.34
2018-02-05T03:50:29.792Z,102089.01
2018-02-05T03:52:58.137Z,102095.17
2018-02-05T03:55:26.461Z,102103.95
2018-02-05T03:57:54.805Z,102092.65
2018-02-05T04:00:23.129Z,102092.14
2018-02-05T04:02:51.477Z,102095.61
2018-02-05T04:05:19.797Z,102095.27
2018-02-05T04:07:48.149Z,102099.51
2018-02-05T04:10:16.474Z,102107.73
2018-02-05T04:12:44.817Z,102113.84
2018-02-05T04:15:13.141Z,102105.59
2018-02-05T04:17:41.489Z,102104.33
2018-02-05T04:20:09.810Z,102112.53
2018-02-05T04:22:38.153Z,102108.16
2018-02-05T04:25:06.473Z,102112.13
2018-02-05T04:27:34.818Z,102110.75
2018-02-05T04:30:03.143Z,102107.30
2018-02-05T04:32:31.498Z,102111.19
2018-02-05T04:34:59.865Z,102114.26
2018-02-05T04:37:28.209Z,102115.12
2018-02-05T04:39:56.531Z,102119.06
2018-02-05T04:42:24.873Z,102119.95
2018-02-05T04:44:53.201Z,102126.56
2018-02-05T04:47:21.540Z,102124.27
2018-02-05T04:49:49.866Z,102124.32
2018-02-05T04:52:18.209Z,102132.13
2018-02-05T04:54:46.533Z,102125.55
2018-02-05T04:57:14.879Z,102129.05
2018-02-05T04:59:43.197Z,102132.63
2018-02-05T05:02:11.541Z,102131.75
2018-02-05T05:04:39.861Z,102131.22
2018-02-05T05:07:13.873Z,102129.83
2018-02-05T05:09:42.198Z,102133.80
2018-02-05T05:12:10.540Z,102131.23
2018-02-05T05:14:38.866Z,102135.52
2018-02-05T05:17:07.209Z,102132.73
2018-02-05T05:19:35.533Z,102134.22
2018-02-05T05:22:03.877Z,102135.13
2018-02-05T05:24:32.201Z,102140.39
2018-02-05T05:27:00.545Z,102139.50
2018-02-05T05:29:28.873Z,102131.61
2018-02-05T05:31:57.217Z,102140.37
2018-02-05T05:34:25.544Z,102138.58
2018-02-05T05:36:53.885Z,102137.63
2018-02-05T05:39:22.205Z,102138.56
2018-02-05T05:41:50.553Z,102143.28
2018-02-05T05:44:18.878Z,102138.46
2018-02-05T05:46:47.509Z,102137.72
2018-02-05T05:49:15.860Z,102138.48
2018-02-05T05:51:46.229Z,102132.69
2018-02-05T05:54:14.833Z,102140.71
2018-02-05T05:56:43.153Z,102138.86
2018-02-05T05:59:11.502Z,102140.02
2018-02-05T06:01:39.921Z,102136.11
2018-02-05T06:04:08.261Z,102146.16
2018-02-05T06:06:36.581Z,102144.39
2018-02-05T06:09:04.945Z,102141.33
2018-02-05T06:11:33.273Z,102142.95
2018-02-05T06:14:01.625Z,102141.72
2018-02-05T06:16:29.961Z,102145.52
2018-02-05T06:18:58.325Z,102152.01
2018-02-05T06:21:26.650Z,102155.76
2018-02-05T06:23:54.993Z,102146.03
2018-02-05T06:26:23.390Z,102146.13
2018-02-05T06:28:51.717Z,102158.19
2018-02-05T06:31:20.041Z,102157.74
2018-02-05T06:33:48.404Z,102160.97
2018-02-05T06:36:16.733Z,102161.08
2018-02-05T06:38:45.116Z,102160.09
2018-02-05T06:41:13.645Z,102167.16
2018-02-05T06:43:42.017Z,102174.06
2018-02-05T06:46:10.357Z,102168.39
2018-02-05T06:48:38.690Z,102174.38
2018-02-05T06:51:18.757Z,102174.41
2018-02-05T06:53:58.869Z,102184.94
2018-02-05T06:56:27.196Z,102184.09
2018-02-05T06:58:55.545Z,102182.61
2018-02-05T07:01:23.878Z,102189.31
2018-02-05T07:03:52.229Z,102193.22
2018-02-05T07:06:20.553Z,102202.02
2018-02-05T07:08:48.910Z,102198.08
2018-02-05T07:11:17.295Z,102205.86
2018-02-05T07:13:45.642Z,102204.17
2018-02-05T07:16:13.977Z,102212.11
2018-02-05T07:18:42.356Z,102215.30
2018-02-05T07:21:10.728Z,102218.81
2018-02-05T07:23:39.054Z,102224.39
2018-02-05T07:26:07.391Z,102227.88
2018-02-05T07:28:35.733Z,102225.81
2018-02-05T07:31:04.061Z,102228.48
2018-02-05T07:33:32.413Z,102233.08
2018-02-05T07:36:00.737Z,102225.75
2018-02-05T07:38:29.089Z,102231.72
2018-02-05T07:40:58.392Z,102234.23
2018-02-05T07:43:27.326Z,102224.06
2018-02-05T07:45:55.859Z,102218.53
2018-02-05T07:48:24.630Z,102230.54
2018-02-05T07:50:53.183Z,102231.97
2018-02-05T07:53:21.603Z,102228.45
2018-02-05T07:55:50.436Z,102221.19
2018-02-05T07:58:19.497Z,102225.84
2018-02-05T08:00:48.229Z,102227.72
2018-02-05T08:03:16.895Z,102224.05
2018-02-05T08:05:45.534Z,102227.81
2018-02-05T08:08:14.329Z,102223.53
2018-02-05T08:10:42.994Z,102225.03
2018-02-05T08:13:11.724Z,102229.84
2018-02-05T08:15:40.919Z,102233.18
2018-02-05T08:18:09.676Z,102231.13
2018-02-05T08:20:38.938Z,102241.78
2018-02-05T08:23:07.621Z,102239.20
2018-02-05T08:25:36.391Z,102245.27
2018-02-05T08:28:05.330Z,102236.59
2018-02-05T08:30:34.710Z,102241.95
2018-02-05T08:33:03.498Z,102246.05
2018-02-05T08:35:32.273Z,102249.50
2018-02-05T08:38:00.669Z,102253.16
2018-02-05T08:40:29.293Z,102249.28
2018-02-05T08:42:58.234Z,102247.99
2018-02-05T08:45:26.972Z,102258.30
2018-02-05T08:47:55.670Z,102252.77
2018-02-05T08:50:24.439Z,102258.93
2018-02-05T08:52:53.250Z,102261.84
2018-02-05T08:55:21.717Z,102250.69
2018-02-05T08:57:50.339Z,102250.19
2018-02-05T09:00:18.993Z,102248.36
2018-02-05T09:02:47.686Z,102242.67
2018-02-05T09:05:16.403Z,102244.42
2018-02-05T09:07:44.998Z,102242.41
2018-02-05T09:10:13.557Z,102231.25
2018-02-05T09:12:42.239Z,102227.51
2018-02-05T09:15:10.988Z,102231.35
2018-02-05T09:17:39.618Z,102229.61
2018-02-05T09:20:08.458Z,102233.10
2018-02-05T09:22:37.187Z,102232.72
2018-02-05T09:25:06.745Z,102234.98
2018-02-05T09:27:35.415Z,102234.59
2018-02-05T09:30:04.066Z,102241.09
2018-02-05T09:32:32.786Z,102240.30
2018-02-05T09:35:01.606Z,102244.22
2018-02-05T09:37:29.949Z,102240.03
2018-02-05T09:39:58.297Z,102240.58
2018-02-05T09:42:26.630Z,102239.22
2018-02-05T09:44:54.974Z,102244.84
2018-02-05T09:47:23.497Z,102238.37
2018-02-05T09:49:51.846Z,102245.66
2018-02-05T09:52:20.178Z,102244.84
2018-02-05T09:54:48.525Z,102245.84
2018-02-05T09:57:16.853Z,102244.72
2018-02-05T09:59:45.201Z,102242.68
2018-02-05T10:02:13.534Z,102240.89
2018-02-05T10:04:41.881Z,102235.72
2018-02-05T10:07:11.134Z,102233.13
2018-02-05T10:09:39.478Z,102232.82
2018-02-05T10:12:07.806Z,102234.11
2018-02-05T10:14:36.161Z,102237.03
2018-02-05T10:17:04.493Z,102245.33
2018-02-05T10:19:32.844Z,102242.94
2018-02-05T10:22:01.166Z,102241.45
2018-02-05T10:24:29.513Z,102243.64
2018-02-05T10:26:58.657Z,102244.64
2018-02-05T10:29:27.001Z,102247.63
2018-02-05T10:31:55.329Z,102239.30
2018-02-05T10:34:23.653Z,102243.16
2018-02-05T10:36:52.001Z,102242.20
2018-02-05T10:39:20.329Z,102242.23
2018-02-05T10:41:48.681Z,102225.66
2018-02-05T10:44:17.009Z,102235.98
2018-02-05T10:46:46.419Z,102233.69
2018-02-05T10:49:14.743Z,102228.30
2018-02-05T10:51:43.098Z,102222.09
2018-02-05T10:54:11.437Z,102225.48
2018-02-05T10:56:39.785Z,102227.80
2018-02-05T10:59:08.114Z,102226.26
2018-02-05T11:01:36.457Z,102223.69
2018-02-05T11:04:04.781Z,102228.58
2018-02-05T11:06:33.129Z,102227.75
2018-02-05T11:09:01.461Z,102229.38
2018-02-05T11:11:29.809Z,102224.47
2018-02-05T11:13:58.133Z,102216.02
2018-02-05T11:16:26.486Z,102212.03
2018-02-05T11:18:54.817Z,102211.88
2018-02-05T11:21:23.169Z,102206.48
2018-02-05T11:23:51.493Z,102202.47
2018-02-05T11:26:19.849Z,102202.98
2018-02-05T11:28:48.249Z,102203.07
2018-02-05T11:31:16.613Z,102205.12
2018-02-05T11:33:44.942Z,102201.39
2018-02-05T11:36:13.329Z,102194.07
2018-02-05T11:38:41.616Z,102195.50
2018-02-05T11:41:09.973Z,102194.11
2018-02-05T11:43:38.325Z,102192.80
2018-02-05T11:46:07.678Z,102190.52
2018-02-05T11:48:36.002Z,102191.98
2018-02-05T11:51:04.349Z,102188.47
2018-02-05T11:53:32.673Z,102187.89
2018-02-05T11:56:01.021Z,102188.62
2018-02-05T11:58:29.350Z,102195.81
2018-02-05T12:00:57.698Z,102187.90
2018-02-05T12:03:26.027Z,102191.38
2018-02-05T12:05:55.218Z,102192.28
2018-02-05T12:08:23.560Z,102188.66
2018-02-05T12:10:51.916Z,102186.97
2018-02-05T12:13:20.280Z,102188.41
2018-02-05T12:15:48.620Z,102182.53
2018-02-05T12:18:16.937Z,102183.39
2018-02-05T12:20:45.280Z,102176.31
2018-02-05T12:23:13.609Z,102179.80
2018-02-05T12:25:42.817Z,102180.64
2018-02-05T12:28:11.153Z,102171.55
2018-02-05T12:30:39.507Z,102175.01
2018-02-05T12:33:08.783Z,102170.00
2018-02-05T12:35:37.117Z,102167.72
2018-02-05T12:38:05.441Z,102159.08
2018-02-05T12:40:33.764Z,102157.28
2018-02-05T12:43:02.119Z,102155.45
2018-02-05T12:45:30.440Z,102154.91
2018-02-05T12:47:58.793Z,102156.46
2018-02-05T12:50:27.125Z,102151.23
2018-02-05T12:52:55.469Z,102151.69
2018-02-05T12:55:23.797Z,102148.87
2018-02-05T12:57:52.149Z,102150.70
2018-02-05T13:00:23.417Z,102144.33
2018-02-05T13:06:15.257Z,102141.28
2018-02-05T13:08:43.599Z,102134.19
2018-02-05T13:11:11.928Z,102131.91
2018-02-05T13:13:40.258Z,102131.42
2018-02-05T13:16:08.606Z,102129.08
2018-02-05T13:18:36.937Z,102125.52
2018-02-05T13:21:05.384Z,102123.38
2018-02-05T13:23:33.693Z,102120.87
2018-02-05T13:26:02.021Z,102114.77
2018-02-05T13:28:30.369Z,102118.52
2018-02-05T13:30:58.698Z,102112.52
2018-02-05T13:33:27.057Z,102110.65
2018-02-05T13:35:55.381Z,102109.49
2018-02-05T13:38:23.734Z,102106.97
2018-02-05T13:40:52.058Z,102101.22
2018-02-05T13:43:20.406Z,102088.39
2018-02-05T13:45:48.729Z,102088.43
2018-02-05T13:48:17.077Z,102087.10
2018-02-05T13:50:45.405Z,102083.05
2018-02-05T13:53:13.758Z,102076.23
2018-02-05T13:55:42.648Z,102083.73
2018-02-05T13:58:11.007Z,102080.32
2018-02-05T14:00:39.325Z,102073.46
2018-02-05T14:03:07.677Z,102075.02
2018-02-05T14:05:36.006Z,102078.29
2018-02-05T14:08:04.480Z,102073.95
2018-02-05T14:10:34.472Z,102063.45
2018-02-05T14:13:02.870Z,102066.64
2018-02-05T14:15:31.284Z,102061.92
2018-02-05T14:17:59.640Z,102059.48
2018-02-05T14:20:27.953Z,102058.34
2018-02-05T14:22:56.310Z,102057.19
2018-02-05T14:25:25.302Z,102054.16
2018-02-05T14:27:53.594Z,102048.55
2018-02-05T14:30:22.984Z,102043.39
2018-02-05T14:32:51.421Z,102040.92
2018-02-05T14:35:19.751Z,102037.31
2018-02-05T14:37:48.316Z,102039.55
2018-02-05T14:40:17.468Z,102036.05
2018-02-05T14:42:45.820Z,102026.86
2018-02-05T14:45:14.411Z,102033.76
2018-02-05T14:47:42.757Z,102026.91
2018-02-05T14:50:11.101Z,102025.66
2018-02-05T14:52:39.580Z,102016.50
2018-02-05T14:55:07.901Z,102017.44
2018-02-05T14:57:36.355Z,102014.03
2018-02-05T15:00:04.694Z,102012.63
2018-02-05T15:02:33.324Z,102009.08
2018-02-05T15:05:02.250Z,102011.65
2018-02-05T15:07:30.616Z,102008.98
2018-02-05T15:09:58.949Z,102003.81
2018-02-05T15:12:28.224Z,101999.09
2018-02-05T15:14:56.808Z,101999.78
2018-02-05T15:17:25.162Z,101992.34
2018-02-05T15:19:53.526Z,101988.92
2018-02-05T15:22:21.877Z,101997.92
2018-02-05T15:24:51.090Z,101991.40
2018-02-05T15:27:19.488Z,101990.39
2018-02-05T15:29:47.856Z,101990.39
2018-02-05T15:32:16.343Z,101986.48
2018-02-05T15:34:45.326Z,101990.41
2018-02-05T15:37:13.737Z,101995.02
2018-02-05T15:39:42.085Z,101990.63
2018-02-05T15:42:10.443Z,101990.16
2018-02-05T15:44:38.797Z,101988.33
2018-02-05T15:47:07.257Z,101991.06
2018-02-05T15:49:35.589Z,101986.91
2018-02-05T15:52:03.954Z,101981.38
2018-02-05T15:54:32.310Z,101980.95
2018-02-05T15:57:00.765Z,101983.28
2018-02-05T15:59:29.110Z,101980.34
2018-02-05T16:01:57.432Z,101982.59
2018-02-05T16:04:25.826Z,101980.05
2018-02-05T16:06:55.404Z,101976.91
2018-02-05T16:09:23.757Z,101976.17
2018-02-05T16:11:52.085Z,101979.34
2018-02-05T16:14:20.433Z,101966.78
2018-02-05T16:16:48.765Z,101961.59
2018-02-05T16:19:17.112Z,101972.21
2018-02-05T16:21:45.452Z,101971.69
2018-02-05T16:24:13.782Z,101963.94
2018-02-05T16:26:42.104Z,101966.55
2018-02-05T16:29:10.478Z,101958.88
2018-02-05T16:31:38.817Z,101960.52
2018-02-05T16:34:07.593Z,101960.47
2018-02-05T16:36:36.016Z,101957.87
2018-02-05T16:39:04.361Z,101957.88
2018-02-05T16:41:32.706Z,101954.94
2018-02-05T16:44:01.085Z,101959.27
2018-02-05T16:46:29.475Z,101958.95
2018-02-05T16:48:57.849Z,101963.28
2018-02-05T16:51:26.189Z,101964.05
2018-02-05T16:53:54.665Z,101959.36
2018-02-05T16:56:23.014Z,101958.81
2018-02-05T16:58:51.369Z,101956.95
2018-02-05T17:01:19.688Z,101949.66
2018-02-05T17:03:48.028Z,101953.45
2018-02-05T17:06:16.358Z,101955.47
2018-02-05T17:08:44.708Z,101950.58
2018-02-05T17:11:13.040Z,101951.41
2018-02-05T17:13:42.546Z,101954.34
2018-02-05T17:16:15.723Z,101953.22
2018-02-05T17:18:45.764Z,101951.87
2018-02-05T17:21:14.102Z,101956.93
2018-02-05T17:23:42.458Z,101956.66
2018-02-05T17:26:11.738Z,101952.86
2018-02-05T17:28:40.134Z,101952.61
2018-02-05T17:31:08.469Z,101942.52
2018-02-05T17:33:36.829Z,101953.62
2018-02-05T17:36:05.165Z,101951.24
2018-02-05T17:38:33.545Z,101948.14
2018-02-05T17:41:01.911Z,101952.35
2018-02-05T17:43:30.257Z,101962.75
2018-02-05T17:45:59.570Z,101946.18
2018-02-05T17:48:27.893Z,101950.66
2018-02-05T17:50:56.247Z,101957.62
2018-02-05T17:53:24.640Z,101953.34
2018-02-05T17:55:53.962Z,101953.23
2018-02-05T17:58:22.387Z,101953.28
2018-02-05T18:00:50.733Z,101951.37
2018-02-05T18:03:20.352Z,101954.92
2018-02-05T18:05:49.693Z,101950.52
2018-02-05T18:08:18.021Z,101945.14
2018-02-05T18:10:46.391Z,101938.97
2018-02-05T18:13:14.714Z,101936.52
2018-02-05T18:15:44.043Z,101932.96
2018-02-05T18:18:12.361Z,101937.80
2018-02-05T18:20:40.734Z,101937.23
2018-02-05T18:23:09.058Z,101929.06
2018-02-05T18:25:37.425Z,101920.31
2018-02-05T18:28:05.765Z,101926.02
2018-02-05T18:30:34.158Z,101926.32
2018-02-05T18:33:02.491Z,101917.31
2018-02-05T18:35:30.920Z,101916.24
2018-02-05T18:38:03.984Z,101916.28
2018-02-05T18:40:32.328Z,101918.84
2018-02-05T18:43:01.453Z,101912.69
2018-02-05T18:45:29.806Z,101913.69
2018-02-05T18:47:58.137Z,101906.02
2018-02-05T18:50:26.489Z,101905.66
2018-02-05T18:52:54.818Z,101905.77
2018-02-05T18:55:23.158Z,101895.82
2018-02-05T18:57:51.477Z,101899.22
2018-02-05T19:00:31.660Z,101895.43
2018-02-05T19:03:00.006Z,101891.44
2018-02-05T19:05:28.526Z,101890.53
2018-02-05T19:07:57.048Z,101884.87
2018-02-05T19:10:25.405Z,101887.02
2018-02-05T19:12:53.746Z,101882.19
2018-02-05T19:15:22.101Z,101877.53
2018-02-05T19:17:50.425Z,101877.00
2018-02-05T19:20:18.777Z,101871.52
2018-02-05T19:22:47.168Z,101871.73
2018-02-05T19:25:15.534Z,101868.00
2018-02-05T19:27:43.882Z,101875.19
2018-02-05T19:30:12.234Z,101871.23
2018-02-05T19:32:40.585Z,101868.88
2018-02-05T19:35:08.949Z,101867.47
2018-02-05T19:37:37.349Z,101858.95
2018-02-05T19:40:05.699Z,101857.68
2018-02-05T19:42:34.034Z,101860.75
2018-02-05T19:45:02.378Z,101857.18
2018-02-05T19:47:30.709Z,101858.32
2018-02-05T19:49:59.062Z,101854.64
2018-02-05T19:52:27.389Z,101856.66
2018-02-05T19:54:56.693Z,101854.78
2018-02-05T19:57:25.011Z,101847.63
2018-02-05T19:59:53.353Z,101854.88
2018-02-05T20:02:21.681Z,101852.58
2018-02-05T20:04:50.041Z,101847.74
2018-02-05T20:07:18.450Z,101852.62
2018-02-05T20:09:46.780Z,101849.88
2018-02-05T20:12:15.129Z,101845.38
2018-02-05T20:14:43.468Z,101849.19
2018-02-05T20:17:11.808Z,101849.56
2018-02-05T20:19:40.138Z,101841.88
2018-02-05T20:22:08.497Z,101839.77
2018-02-05T20:24:36.821Z,101847.75
2018-02-05T20:27:05.173Z,101841.94
2018-02-05T20:29:33.501Z,101857.42
2018-02-05T20:32:01.862Z,101852.16
2018-02-05T20:34:30.191Z,101849.61
2018-02-05T20:36:58.541Z,101843.84
2018-02-05T20:39:26.865Z,101839.36
2018-02-05T20:41:55.244Z,101841.83
2018-02-05T20:44:23.572Z,101840.63
2018-02-05T20:46:52.808Z,101840.54
2018-02-05T20:49:21.137Z,101841.16
2018-02-05T20:51:49.742Z,101840.30
2018-02-05T20:54:18.065Z,101842.86
2018-02-05T20:56:46.434Z,101840.56
2018-02-05T20:59:14.802Z,101837.28
2018-02-05T21:01:43.186Z,101831.70
2018-02-05T21:04:11.517Z,101826.98
2018-02-05T21:06:40.661Z,101828.20
2018-02-05T21:09:08.994Z,101830.46
2018-02-05T21:11:37.337Z,101824.41
2018-02-05T21:14:05.674Z,101821.28
2018-02-05T21:16:34.025Z,101824.01
2018-02-05T21:19:02.357Z,101817.73
2018-02-05T21:21:30.701Z,101812.84
2018-02-05T21:23:59.026Z,101818.84
2018-02-05T21:26:28.157Z,101807.19
2018-02-05T21:28:56.486Z,101808.48
2018-02-05T21:31:24.861Z,101814.29
2018-02-05T21:33:53.339Z,101805.41
2018-02-05T21:36:21.705Z,101802.10
2018-02-05T21:38:50.644Z,101806.00
2018-02-05T21:41:19.793Z,101799.53
2018-02-05T21:43:48.354Z,101803.64
2018-02-05T21:46:16.725Z,101792.41
2018-02-05T21:48:45.641Z,101800.48
2018-02-05T21:51:13.982Z,101791.48
2018-02-05T21:53:42.311Z,101790.52
2018-02-05T21:56:10.917Z,101795.50
2018-02-05T21:58:39.312Z,101792.03
2018-02-05T22:01:07.653Z,101779.42
2018-02-05T22:03:35.978Z,101781.03
2018-02-05T22:06:04.326Z,101784.88
2018-02-05T22:08:32.710Z,101780.44
2018-02-05T22:11:01.009Z,101777.91
2018-02-05T22:13:29.343Z,101769.12
2018-02-05T22:15:57.671Z,101767.96
2018-02-05T22:18:26.014Z,101763.94
2018-02-05T22:20:54.337Z,101761.88
2018-02-05T22:23:22.683Z,101756.15
2018-02-05T22:25:51.901Z,101753.34
2018-02-05T22:28:20.248Z,101749.77
2018-02-05T22:30:48.573Z,101742.13
2018-02-05T22:33:16.931Z,101740.05
2018-02-05T22:35:46.217Z,101741.12
2018-02-05T22:38:14.565Z,101738.20
2018-02-05T22:40:42.888Z,101727.29
2018-02-05T22:43:11.238Z,101715.16
2018-02-05T22:45:39.561Z,101719.62
2018-02-05T22:48:07.909Z,101719.05
2018-02-05T22:50:36.233Z,101721.87
2018-02-05T22:53:04.583Z,101711.58
2018-02-05T22:55:32.901Z,101710.83
2018-02-05T22:58:01.284Z,101708.97
2018-02-05T23:00:29.608Z,101706.12
2018-02-05T23:02:57.953Z,101693.56
2018-02-05T23:05:26.278Z,101691.28
2018-02-05T23:07:54.649Z,101692.91
2018-02-05T23:10:22.950Z,101688.41
2018-02-05T23:12:51.284Z,101683.75
2018-02-05T23:15:19.605Z,101678.27
2018-02-05T23:17:47.949Z,101679.66
2018-02-05T23:20:16.273Z,101670.14
2018-02-05T23:22:44.613Z,101670.77
2018-02-05T23:25:13.124Z,101677.05
2018-02-05T23:27:41.469Z,101662.70
2018-02-05T23:30:09.894Z,101673.53
2018-02-05T23:32:38.217Z,101665.23
2018-02-05T23:35:06.545Z,101653.59
2018-02-05T23:37:34.889Z,101651.30
2018-02-05T23:40:03.214Z,101653.40
2018-02-05T23:42:31.561Z,101648.77
2018-02-05T23:44:59.890Z,101644.16
2018-02-05T23:47:28.233Z,101642.64
2018-02-05T23:49:56.602Z,101638.62
2018-02-05T23:52:24.929Z,101635.70
2018-02-05T23:54:53.257Z,101637.02
2018-02-05T23:57:21.605Z,101634.92
2018-02-05T23:59:49.921Z,101627.68
